sensor_id;sensor_type;location;lat;lon;timestamp;P1;durP1;ratioP1;P2;durP2;ratioP2
15848;SDS011;8024;48.708;9.394;2023-06-24T00:01:40;4.33;;;4.03;;
15848;SDS011;8024;48.708;9.394;2023-06-24T00:04:08;4.93;;;4.50;;
15848;SDS011;8024;48.708;9.394;2023-06-24T00:06:35;5.03;;;4.60;;
15848;SDS011;8024;48.708;9.394;2023-06-24T00:09:04;5.03;;;4.43;;
15848;SDS011;8024;48.708;9.394;2023-06-24T00:11:32;4.53;;;4.13;;
15848;SDS011;8024;48.708;9.394;2023-06-24T00:14:00;4.97;;;4.47;;
15848;SDS011;8024;48.708;9.394;2023-06-24T00:16:27;4.73;;;4.33;;
15848;SDS011;8024;48.708;9.394;2023-06-24T00:18:54;4.13;;;3.73;;
15848;SDS011;8024;48.708;9.394;2023-06-24T00:21:26;4.60;;;4.20;;
15848;SDS011;8024;48.708;9.394;2023-06-24T00:23:55;4.10;;;3.80;;
15848;SDS011;8024;48.708;9.394;2023-06-24T00:26:22;5.00;;;4.33;;
15848;SDS011;8024;48.708;9.394;2023-06-24T00:28:50;4.60;;;4.20;;
15848;SDS011;8024;48.708;9.394;2023-06-24T00:31:17;4.57;;;4.17;;
15848;SDS011;8024;48.708;9.394;2023-06-24T00:33:44;4.17;;;3.87;;
15848;SDS011;8024;48.708;9.394;2023-06-24T00:36:12;4.80;;;4.40;;
15848;SDS011;8024;48.708;9.394;2023-06-24T00:38:40;4.47;;;4.00;;
15848;SDS011;8024;48.708;9.394;2023-06-24T00:41:07;4.57;;;4.17;;
15848;SDS011;8024;48.708;9.394;2023-06-24T00:43:35;5.20;;;4.70;;
15848;SDS011;8024;48.708;9.394;2023-06-24T00:46:03;4.80;;;4.30;;
15848;SDS011;8024;48.708;9.394;2023-06-24T00:48:31;6.30;;;4.90;;
15848;SDS011;8024;48.708;9.394;2023-06-24T00:50:58;5.03;;;4.63;;
15848;SDS011;8024;48.708;9.394;2023-06-24T00:53:26;5.23;;;4.43;;
15848;SDS011;8024;48.708;9.394;2023-06-24T00:55:55;4.60;;;4.20;;
15848;SDS011;8024;48.708;9.394;2023-06-24T00:58:27;4.97;;;4.53;;
15848;SDS011;8024;48.708;9.394;2023-06-24T01:00:55;4.70;;;4.40;;
15848;SDS011;8024;48.708;9.394;2023-06-24T01:03:24;4.80;;;4.43;;
15848;SDS011;8024;48.708;9.394;2023-06-24T01:05:52;5.00;;;4.50;;
15848;SDS011;8024;48.708;9.394;2023-06-24T01:08:20;5.43;;;5.03;;
15848;SDS011;8024;48.708;9.394;2023-06-24T01:10:48;5.53;;;5.03;;
15848;SDS011;8024;48.708;9.394;2023-06-24T01:13:17;5.47;;;5.03;;
15848;SDS011;8024;48.708;9.394;2023-06-24T01:15:44;7.20;;;5.67;;
15848;SDS011;8024;48.708;9.394;2023-06-24T01:18:13;5.23;;;4.70;;
15848;SDS011;8024;48.708;9.394;2023-06-24T01:20:48;5.43;;;4.97;;
15848;SDS011;8024;48.708;9.394;2023-06-24T01:32:11;5.20;;;4.70;;
15848;SDS011;8024;48.708;9.394;2023-06-24T01:34:48;5.87;;;5.30;;
15848;SDS011;8024;48.708;9.394;2023-06-24T01:37:20;4.40;;;4.00;;
15848;SDS011;8024;48.708;9.394;2023-06-24T01:39:56;5.73;;;5.10;;
15848;SDS011;8024;48.708;9.394;2023-06-24T01:42:33;5.13;;;4.73;;
15848;SDS011;8024;48.708;9.394;2023-06-24T01:45:03;5.27;;;4.77;;
15848;SDS011;8024;48.708;9.394;2023-06-24T01:47:33;6.77;;;5.20;;
15848;SDS011;8024;48.708;9.394;2023-06-24T01:50:01;6.53;;;5.47;;
15848;SDS011;8024;48.708;9.394;2023-06-24T01:52:30;5.63;;;5.13;;
15848;SDS011;8024;48.708;9.394;2023-06-24T01:54:58;6.07;;;5.50;;
15848;SDS011;8024;48.708;9.394;2023-06-24T01:57:26;6.00;;;5.40;;
15848;SDS011;8024;48.708;9.394;2023-06-24T01:59:54;5.00;;;4.57;;
15848;SDS011;8024;48.708;9.394;2023-06-24T02:02:23;6.03;;;5.43;;
15848;SDS011;8024;48.708;9.394;2023-06-24T02:04:53;5.33;;;4.83;;
15848;SDS011;8024;48.708;9.394;2023-06-24T02:07:21;5.43;;;5.00;;
15848;SDS011;8024;48.708;9.394;2023-06-24T02:09:49;5.40;;;4.90;;
15848;SDS011;8024;48.708;9.394;2023-06-24T02:12:18;5.77;;;4.40;;
15848;SDS011;8024;48.708;9.394;2023-06-24T02:14:47;7.20;;;5.13;;
15848;SDS011;8024;48.708;9.394;2023-06-24T02:17:15;6.27;;;5.67;;
15848;SDS011;8024;48.708;9.394;2023-06-24T02:19:43;5.23;;;4.77;;
15848;SDS011;8024;48.708;9.394;2023-06-24T02:22:12;5.20;;;4.70;;
15848;SDS011;8024;48.708;9.394;2023-06-24T02:24:39;5.60;;;5.00;;
15848;SDS011;8024;48.708;9.394;2023-06-24T02:27:07;8.57;;;5.50;;
15848;SDS011;8024;48.708;9.394;2023-06-24T02:29:36;5.83;;;5.23;;
15848;SDS011;8024;48.708;9.394;2023-06-24T02:32:05;6.20;;;5.60;;
15848;SDS011;8024;48.708;9.394;2023-06-24T02:34:33;5.50;;;5.00;;
15848;SDS011;8024;48.708;9.394;2023-06-24T02:37:00;6.20;;;5.60;;
15848;SDS011;8024;48.708;9.394;2023-06-24T02:39:29;6.43;;;5.03;;
15848;SDS011;8024;48.708;9.394;2023-06-24T02:41:56;6.20;;;5.63;;
15848;SDS011;8024;48.708;9.394;2023-06-24T02:44:23;6.70;;;6.00;;
15848;SDS011;8024;48.708;9.394;2023-06-24T02:46:50;5.83;;;5.33;;
15848;SDS011;8024;48.708;9.394;2023-06-24T02:49:19;6.67;;;6.00;;
15848;SDS011;8024;48.708;9.394;2023-06-24T02:51:47;6.93;;;6.23;;
15848;SDS011;8024;48.708;9.394;2023-06-24T02:54:15;6.20;;;5.60;;
15848;SDS011;8024;48.708;9.394;2023-06-24T02:56:43;5.53;;;5.03;;
15848;SDS011;8024;48.708;9.394;2023-06-24T02:59:10;7.67;;;6.60;;
15848;SDS011;8024;48.708;9.394;2023-06-24T03:01:38;7.10;;;6.40;;
15848;SDS011;8024;48.708;9.394;2023-06-24T03:04:10;7.13;;;6.43;;
15848;SDS011;8024;48.708;9.394;2023-06-24T03:06:38;6.53;;;5.93;;
15848;SDS011;8024;48.708;9.394;2023-06-24T03:09:06;6.47;;;5.80;;
15848;SDS011;8024;48.708;9.394;2023-06-24T03:11:39;6.60;;;6.00;;
15848;SDS011;8024;48.708;9.394;2023-06-24T03:14:08;6.97;;;6.20;;
15848;SDS011;8024;48.708;9.394;2023-06-24T03:16:35;6.50;;;5.90;;
15848;SDS011;8024;48.708;9.394;2023-06-24T03:19:03;6.87;;;5.70;;
15848;SDS011;8024;48.708;9.394;2023-06-24T03:21:31;7.03;;;6.30;;
15848;SDS011;8024;48.708;9.394;2023-06-24T03:23:58;6.80;;;5.87;;
15848;SDS011;8024;48.708;9.394;2023-06-24T03:26:30;6.43;;;5.83;;
15848;SDS011;8024;48.708;9.394;2023-06-24T03:28:59;6.87;;;6.03;;
15848;SDS011;8024;48.708;9.394;2023-06-24T03:31:27;6.93;;;6.23;;
15848;SDS011;8024;48.708;9.394;2023-06-24T03:33:54;8.17;;;5.60;;
15848;SDS011;8024;48.708;9.394;2023-06-24T03:36:22;7.13;;;6.47;;
15848;SDS011;8024;48.708;9.394;2023-06-24T03:38:49;6.90;;;6.20;;
15848;SDS011;8024;48.708;9.394;2023-06-24T03:41:17;7.17;;;6.40;;
15848;SDS011;8024;48.708;9.394;2023-06-24T03:43:44;6.93;;;6.27;;
15848;SDS011;8024;48.708;9.394;2023-06-24T03:46:12;7.37;;;6.67;;
15848;SDS011;8024;48.708;9.394;2023-06-24T03:48:40;7.20;;;5.90;;
15848;SDS011;8024;48.708;9.394;2023-06-24T03:51:08;7.03;;;6.43;;
15848;SDS011;8024;48.708;9.394;2023-06-24T03:53:36;7.13;;;6.37;;
15848;SDS011;8024;48.708;9.394;2023-06-24T03:56:03;10.60;;;6.87;;
15848;SDS011;8024;48.708;9.394;2023-06-24T03:58:30;6.63;;;5.93;;
15848;SDS011;8024;48.708;9.394;2023-06-24T04:00:58;7.00;;;6.40;;
15848;SDS011;8024;48.708;9.394;2023-06-24T04:03:26;8.53;;;6.80;;
15848;SDS011;8024;48.708;9.394;2023-06-24T04:05:55;7.10;;;6.27;;
15848;SDS011;8024;48.708;9.394;2023-06-24T04:08:22;8.37;;;6.07;;
15848;SDS011;8024;48.708;9.394;2023-06-24T04:10:54;7.50;;;6.77;;
15848;SDS011;8024;48.708;9.394;2023-06-24T04:13:21;6.80;;;6.20;;
15848;SDS011;8024;48.708;9.394;2023-06-24T04:15:48;7.87;;;7.07;;
15848;SDS011;8024;48.708;9.394;2023-06-24T04:18:15;7.07;;;6.37;;
15848;SDS011;8024;48.708;9.394;2023-06-24T04:20:43;7.40;;;6.43;;
15848;SDS011;8024;48.708;9.394;2023-06-24T04:23:11;8.10;;;6.57;;
15848;SDS011;8024;48.708;9.394;2023-06-24T04:25:39;7.30;;;6.60;;
15848;SDS011;8024;48.708;9.394;2023-06-24T04:28:07;8.77;;;6.90;;
15848;SDS011;8024;48.708;9.394;2023-06-24T04:30:34;7.47;;;6.77;;
15848;SDS011;8024;48.708;9.394;2023-06-24T04:33:03;6.93;;;6.30;;
15848;SDS011;8024;48.708;9.394;2023-06-24T04:35:30;9.93;;;8.13;;
15848;SDS011;8024;48.708;9.394;2023-06-24T04:37:58;8.07;;;6.70;;
15848;SDS011;8024;48.708;9.394;2023-06-24T04:40:26;8.57;;;7.67;;
15848;SDS011;8024;48.708;9.394;2023-06-24T04:42:53;8.53;;;7.23;;
15848;SDS011;8024;48.708;9.394;2023-06-24T04:45:20;7.37;;;6.63;;
15848;SDS011;8024;48.708;9.394;2023-06-24T04:47:47;8.20;;;7.40;;
15848;SDS011;8024;48.708;9.394;2023-06-24T04:50:15;8.23;;;7.40;;
15848;SDS011;8024;48.708;9.394;2023-06-24T04:52:42;8.17;;;7.37;;
15848;SDS011;8024;48.708;9.394;2023-06-24T04:55:09;8.70;;;7.50;;
15848;SDS011;8024;48.708;9.394;2023-06-24T04:57:38;8.60;;;7.30;;
15848;SDS011;8024;48.708;9.394;2023-06-24T05:00:08;8.17;;;6.23;;
15848;SDS011;8024;48.708;9.394;2023-06-24T05:02:35;7.63;;;6.83;;
15848;SDS011;8024;48.708;9.394;2023-06-24T05:05:03;10.47;;;6.57;;
15848;SDS011;8024;48.708;9.394;2023-06-24T05:07:30;8.13;;;5.97;;
15848;SDS011;8024;48.708;9.394;2023-06-24T05:09:57;7.53;;;6.83;;
15848;SDS011;8024;48.708;9.394;2023-06-24T05:12:25;6.50;;;5.90;;
15848;SDS011;8024;48.708;9.394;2023-06-24T05:14:53;7.53;;;6.83;;
15848;SDS011;8024;48.708;9.394;2023-06-24T05:17:20;8.30;;;6.97;;
15848;SDS011;8024;48.708;9.394;2023-06-24T05:19:47;9.00;;;6.30;;
15848;SDS011;8024;48.708;9.394;2023-06-24T05:22:14;7.30;;;6.43;;
15848;SDS011;8024;48.708;9.394;2023-06-24T05:24:42;6.93;;;6.30;;
15848;SDS011;8024;48.708;9.394;2023-06-24T05:27:09;6.57;;;5.97;;
15848;SDS011;8024;48.708;9.394;2023-06-24T05:29:36;8.17;;;6.00;;
15848;SDS011;8024;48.708;9.394;2023-06-24T05:32:05;7.63;;;6.80;;
15848;SDS011;8024;48.708;9.394;2023-06-24T05:34:33;7.43;;;6.53;;
15848;SDS011;8024;48.708;9.394;2023-06-24T05:37:00;7.47;;;6.57;;
15848;SDS011;8024;48.708;9.394;2023-06-24T05:39:27;7.97;;;7.23;;
15848;SDS011;8024;48.708;9.394;2023-06-24T05:41:54;7.93;;;7.17;;
15848;SDS011;8024;48.708;9.394;2023-06-24T05:44:21;8.57;;;7.00;;
15848;SDS011;8024;48.708;9.394;2023-06-24T05:46:49;8.23;;;5.80;;
15848;SDS011;8024;48.708;9.394;2023-06-24T05:49:17;7.70;;;6.93;;
15848;SDS011;8024;48.708;9.394;2023-06-24T05:51:44;8.17;;;7.03;;
15848;SDS011;8024;48.708;9.394;2023-06-24T05:54:11;7.13;;;6.33;;
15848;SDS011;8024;48.708;9.394;2023-06-24T05:56:39;7.13;;;6.43;;
15848;SDS011;8024;48.708;9.394;2023-06-24T05:59:06;6.67;;;6.10;;
15848;SDS011;8024;48.708;9.394;2023-06-24T06:01:33;6.53;;;5.83;;
15848;SDS011;8024;48.708;9.394;2023-06-24T06:04:00;7.37;;;6.00;;
15848;SDS011;8024;48.708;9.394;2023-06-24T06:06:29;6.87;;;6.27;;
15848;SDS011;8024;48.708;9.394;2023-06-24T06:08:56;6.13;;;5.53;;
15848;SDS011;8024;48.708;9.394;2023-06-24T06:11:25;7.03;;;6.43;;
15848;SDS011;8024;48.708;9.394;2023-06-24T06:13:52;6.90;;;6.27;;
15848;SDS011;8024;48.708;9.394;2023-06-24T06:16:20;6.63;;;6.07;;
15848;SDS011;8024;48.708;9.394;2023-06-24T06:18:47;6.83;;;5.87;;
15848;SDS011;8024;48.708;9.394;2023-06-24T06:21:14;8.73;;;6.27;;
15848;SDS011;8024;48.708;9.394;2023-06-24T06:23:43;8.07;;;5.93;;
15848;SDS011;8024;48.708;9.394;2023-06-24T06:26:10;6.60;;;5.93;;
15848;SDS011;8024;48.708;9.394;2023-06-24T06:28:37;8.37;;;6.40;;
15848;SDS011;8024;48.708;9.394;2023-06-24T06:31:04;6.20;;;5.70;;
15848;SDS011;8024;48.708;9.394;2023-06-24T06:33:31;6.67;;;5.93;;
15848;SDS011;8024;48.708;9.394;2023-06-24T06:35:58;7.07;;;5.67;;
15848;SDS011;8024;48.708;9.394;2023-06-24T06:38:26;6.67;;;5.97;;
15848;SDS011;8024;48.708;9.394;2023-06-24T06:40:55;7.30;;;5.80;;
15848;SDS011;8024;48.708;9.394;2023-06-24T06:43:22;6.70;;;5.50;;
15848;SDS011;8024;48.708;9.394;2023-06-24T06:45:49;5.70;;;5.17;;
15848;SDS011;8024;48.708;9.394;2023-06-24T06:48:16;6.17;;;5.30;;
15848;SDS011;8024;48.708;9.394;2023-06-24T06:50:43;4.53;;;4.13;;
15848;SDS011;8024;48.708;9.394;2023-06-24T06:53:11;4.57;;;4.17;;
15848;SDS011;8024;48.708;9.394;2023-06-24T06:55:38;4.73;;;4.33;;
15848;SDS011;8024;48.708;9.394;2023-06-24T06:58:09;6.10;;;4.27;;
15848;SDS011;8024;48.708;9.394;2023-06-24T07:00:36;6.07;;;4.90;;
15848;SDS011;8024;48.708;9.394;2023-06-24T07:03:03;4.40;;;4.00;;
15848;SDS011;8024;48.708;9.394;2023-06-24T07:05:30;5.60;;;4.37;;
15848;SDS011;8024;48.708;9.394;2023-06-24T07:07:57;5.23;;;4.83;;
15848;SDS011;8024;48.708;9.394;2023-06-24T07:10:25;5.03;;;4.53;;
15848;SDS011;8024;48.708;9.394;2023-06-24T07:12:52;4.93;;;4.43;;
15848;SDS011;8024;48.708;9.394;2023-06-24T07:15:24;6.37;;;5.67;;
15848;SDS011;8024;48.708;9.394;2023-06-24T07:17:51;7.53;;;5.87;;
15848;SDS011;8024;48.708;9.394;2023-06-24T07:20:19;5.67;;;5.07;;
15848;SDS011;8024;48.708;9.394;2023-06-24T07:22:46;4.10;;;3.70;;
15848;SDS011;8024;48.708;9.394;2023-06-24T07:25:14;4.30;;;3.90;;
15848;SDS011;8024;48.708;9.394;2023-06-24T07:27:41;4.93;;;4.53;;
15848;SDS011;8024;48.708;9.394;2023-06-24T07:30:08;3.47;;;3.10;;
15848;SDS011;8024;48.708;9.394;2023-06-24T07:32:37;3.57;;;3.27;;
15848;SDS011;8024;48.708;9.394;2023-06-24T07:35:05;4.27;;;3.30;;
15848;SDS011;8024;48.708;9.394;2023-06-24T07:37:33;4.00;;;3.60;;
15848;SDS011;8024;48.708;9.394;2023-06-24T07:40:01;3.90;;;3.60;;
15848;SDS011;8024;48.708;9.394;2023-06-24T07:42:30;4.00;;;3.67;;
15848;SDS011;8024;48.708;9.394;2023-06-24T07:44:57;3.27;;;3.07;;
15848;SDS011;8024;48.708;9.394;2023-06-24T07:47:24;3.47;;;3.17;;
15848;SDS011;8024;48.708;9.394;2023-06-24T07:49:53;3.37;;;3.07;;
15848;SDS011;8024;48.708;9.394;2023-06-24T07:52:20;3.27;;;2.97;;
15848;SDS011;8024;48.708;9.394;2023-06-24T07:54:47;3.53;;;3.23;;
15848;SDS011;8024;48.708;9.394;2023-06-24T07:57:14;2.90;;;2.60;;
15848;SDS011;8024;48.708;9.394;2023-06-24T07:59:42;3.47;;;3.17;;
15848;SDS011;8024;48.708;9.394;2023-06-24T08:02:09;3.50;;;3.20;;
15848;SDS011;8024;48.708;9.394;2023-06-24T08:04:36;4.80;;;3.10;;
15848;SDS011;8024;48.708;9.394;2023-06-24T08:07:05;4.00;;;2.80;;
15848;SDS011;8024;48.708;9.394;2023-06-24T08:09:32;3.27;;;2.93;;
15848;SDS011;8024;48.708;9.394;2023-06-24T08:11:59;2.97;;;2.77;;
15848;SDS011;8024;48.708;9.394;2023-06-24T08:14:26;2.83;;;2.60;;
15848;SDS011;8024;48.708;9.394;2023-06-24T08:16:54;3.37;;;2.47;;
15848;SDS011;8024;48.708;9.394;2023-06-24T08:19:21;4.93;;;2.70;;
15848;SDS011;8024;48.708;9.394;2023-06-24T08:21:48;2.87;;;2.47;;
15848;SDS011;8024;48.708;9.394;2023-06-24T08:24:16;3.23;;;3.03;;
15848;SDS011;8024;48.708;9.394;2023-06-24T08:26:44;3.33;;;3.03;;
15848;SDS011;8024;48.708;9.394;2023-06-24T08:29:11;3.70;;;2.93;;
15848;SDS011;8024;48.708;9.394;2023-06-24T08:31:38;2.70;;;2.50;;
15848;SDS011;8024;48.708;9.394;2023-06-24T08:34:05;3.27;;;2.80;;
15848;SDS011;8024;48.708;9.394;2023-06-24T08:36:33;3.77;;;3.33;;
15848;SDS011;8024;48.708;9.394;2023-06-24T08:39:02;3.43;;;2.83;;
15848;SDS011;8024;48.708;9.394;2023-06-24T08:41:30;3.60;;;3.30;;
15848;SDS011;8024;48.708;9.394;2023-06-24T08:43:58;2.77;;;2.57;;
15848;SDS011;8024;48.708;9.394;2023-06-24T08:46:25;3.27;;;2.67;;
15848;SDS011;8024;48.708;9.394;2023-06-24T08:48:57;3.30;;;2.80;;
15848;SDS011;8024;48.708;9.394;2023-06-24T08:51:29;2.83;;;2.63;;
15848;SDS011;8024;48.708;9.394;2023-06-24T08:53:59;3.17;;;2.87;;
15848;SDS011;8024;48.708;9.394;2023-06-24T08:56:27;3.80;;;2.73;;
15848;SDS011;8024;48.708;9.394;2023-06-24T08:58:55;3.07;;;2.87;;
15848;SDS011;8024;48.708;9.394;2023-06-24T09:01:23;2.60;;;2.20;;
15848;SDS011;8024;48.708;9.394;2023-06-24T09:03:51;2.80;;;2.60;;
15848;SDS011;8024;48.708;9.394;2023-06-24T09:06:18;2.83;;;2.63;;
15848;SDS011;8024;48.708;9.394;2023-06-24T09:08:51;5.30;;;3.03;;
15848;SDS011;8024;48.708;9.394;2023-06-24T09:11:21;4.20;;;2.73;;
15848;SDS011;8024;48.708;9.394;2023-06-24T09:13:53;2.73;;;2.53;;
15848;SDS011;8024;48.708;9.394;2023-06-24T09:16:22;3.10;;;2.90;;
15848;SDS011;8024;48.708;9.394;2023-06-24T09:18:50;2.60;;;2.40;;
15848;SDS011;8024;48.708;9.394;2023-06-24T09:21:21;2.60;;;2.40;;
15848;SDS011;8024;48.708;9.394;2023-06-24T09:23:51;2.53;;;2.20;;
15848;SDS011;8024;48.708;9.394;2023-06-24T09:26:18;2.80;;;2.60;;
15848;SDS011;8024;48.708;9.394;2023-06-24T09:28:47;2.77;;;2.57;;
15848;SDS011;8024;48.708;9.394;2023-06-24T09:31:16;3.20;;;2.67;;
15848;SDS011;8024;48.708;9.394;2023-06-24T09:33:44;2.97;;;2.77;;
15848;SDS011;8024;48.708;9.394;2023-06-24T09:36:12;4.57;;;3.07;;
15848;SDS011;8024;48.708;9.394;2023-06-24T09:38:40;3.87;;;2.80;;
15848;SDS011;8024;48.708;9.394;2023-06-24T09:41:09;2.67;;;2.47;;
15848;SDS011;8024;48.708;9.394;2023-06-24T09:43:37;14.00;;;3.47;;
15848;SDS011;8024;48.708;9.394;2023-06-24T09:46:06;140.10;;;16.13;;
15848;SDS011;8024;48.708;9.394;2023-06-24T09:48:35;10.87;;;3.60;;
15848;SDS011;8024;48.708;9.394;2023-06-24T09:51:03;6.13;;;2.00;;
15848;SDS011;8024;48.708;9.394;2023-06-24T09:53:31;2.60;;;2.40;;
15848;SDS011;8024;48.708;9.394;2023-06-24T09:56:00;6.43;;;2.63;;
15848;SDS011;8024;48.708;9.394;2023-06-24T09:58:30;12.37;;;2.90;;
15848;SDS011;8024;48.708;9.394;2023-06-24T10:01:01;2.17;;;1.90;;
15848;SDS011;8024;48.708;9.394;2023-06-24T10:03:30;2.60;;;2.40;;
15848;SDS011;8024;48.708;9.394;2023-06-24T10:06:02;2.97;;;2.43;;
15848;SDS011;8024;48.708;9.394;2023-06-24T10:08:30;2.73;;;1.70;;
15848;SDS011;8024;48.708;9.394;2023-06-24T10:10:58;2.40;;;2.20;;
15848;SDS011;8024;48.708;9.394;2023-06-24T10:13:27;2.00;;;1.90;;
15848;SDS011;8024;48.708;9.394;2023-06-24T10:15:54;3.60;;;2.20;;
15848;SDS011;8024;48.708;9.394;2023-06-24T10:18:31;2.27;;;2.07;;
15848;SDS011;8024;48.708;9.394;2023-06-24T10:21:01;2.30;;;2.10;;
15848;SDS011;8024;48.708;9.394;2023-06-24T10:23:30;2.33;;;2.13;;
15848;SDS011;8024;48.708;9.394;2023-06-24T10:25:58;2.53;;;2.20;;
15848;SDS011;8024;48.708;9.394;2023-06-24T10:28:25;2.83;;;2.40;;
15848;SDS011;8024;48.708;9.394;2023-06-24T10:30:56;2.10;;;2.00;;
15848;SDS011;8024;48.708;9.394;2023-06-24T10:33:23;2.60;;;2.30;;
15848;SDS011;8024;48.708;9.394;2023-06-24T10:35:51;3.57;;;2.13;;
15848;SDS011;8024;48.708;9.394;2023-06-24T10:38:19;3.40;;;1.93;;
15848;SDS011;8024;48.708;9.394;2023-06-24T10:40:47;2.30;;;2.10;;
15848;SDS011;8024;48.708;9.394;2023-06-24T10:43:28;1.70;;;1.60;;
15848;SDS011;8024;48.708;9.394;2023-06-24T10:45:56;1.92;;;1.83;;
15848;SDS011;8024;48.708;9.394;2023-06-24T10:48:24;3.13;;;2.30;;
15848;SDS011;8024;48.708;9.394;2023-06-24T10:50:51;2.58;;;2.35;;
15848;SDS011;8024;48.708;9.394;2023-06-24T10:53:21;2.33;;;2.13;;
15848;SDS011;8024;48.708;9.394;2023-06-24T10:55:48;2.25;;;2.13;;
15848;SDS011;8024;48.708;9.394;2023-06-24T10:58:16;2.45;;;2.10;;
15848;SDS011;8024;48.708;9.394;2023-06-24T11:00:43;3.08;;;2.08;;
15848;SDS011;8024;48.708;9.394;2023-06-24T11:03:11;2.30;;;2.20;;
15848;SDS011;8024;48.708;9.394;2023-06-24T11:05:40;2.58;;;2.20;;
15848;SDS011;8024;48.708;9.394;2023-06-24T11:08:07;2.60;;;2.40;;
15848;SDS011;8024;48.708;9.394;2023-06-24T11:10:43;2.93;;;2.50;;
15848;SDS011;8024;48.708;9.394;2023-06-24T11:13:10;1.95;;;1.85;;
15848;SDS011;8024;48.708;9.394;2023-06-24T11:15:38;2.37;;;2.17;;
15848;SDS011;8024;48.708;9.394;2023-06-24T11:18:07;2.25;;;2.15;;
15848;SDS011;8024;48.708;9.394;2023-06-24T11:20:36;2.15;;;2.00;;
15848;SDS011;8024;48.708;9.394;2023-06-24T11:23:06;1.90;;;1.80;;
15848;SDS011;8024;48.708;9.394;2023-06-24T11:25:38;2.47;;;2.28;;
15848;SDS011;8024;48.708;9.394;2023-06-24T11:28:13;2.55;;;2.20;;
15848;SDS011;8024;48.708;9.394;2023-06-24T11:30:41;2.30;;;2.10;;
15848;SDS011;8024;48.708;9.394;2023-06-24T11:33:08;2.25;;;2.15;;
15848;SDS011;8024;48.708;9.394;2023-06-24T11:35:35;2.13;;;1.92;;
15848;SDS011;8024;48.708;9.394;2023-06-24T11:38:06;3.88;;;2.28;;
15848;SDS011;8024;48.708;9.394;2023-06-24T11:40:34;2.30;;;2.10;;
15848;SDS011;8024;48.708;9.394;2023-06-24T11:43:03;2.47;;;2.28;;
15848;SDS011;8024;48.708;9.394;2023-06-24T11:45:31;2.15;;;1.98;;
15848;SDS011;8024;48.708;9.394;2023-06-24T11:48:02;2.00;;;1.90;;
15848;SDS011;8024;48.708;9.394;2023-06-24T11:50:33;2.25;;;1.73;;
15848;SDS011;8024;48.708;9.394;2023-06-24T11:53:03;1.95;;;1.85;;
15848;SDS011;8024;48.708;9.394;2023-06-24T11:55:30;1.58;;;1.48;;
15848;SDS011;8024;48.708;9.394;2023-06-24T11:57:58;2.60;;;1.67;;
15848;SDS011;8024;48.708;9.394;2023-06-24T12:00:27;1.77;;;1.50;;
15848;SDS011;8024;48.708;9.394;2023-06-24T12:02:57;1.80;;;1.70;;
15848;SDS011;8024;48.708;9.394;2023-06-24T12:05:26;2.30;;;1.65;;
15848;SDS011;8024;48.708;9.394;2023-06-24T12:07:59;1.23;;;1.10;;
15848;SDS011;8024;48.708;9.394;2023-06-24T12:10:27;1.33;;;1.23;;
15848;SDS011;8024;48.708;9.394;2023-06-24T12:12:57;2.65;;;1.50;;
15848;SDS011;8024;48.708;9.394;2023-06-24T12:15:24;1.58;;;1.45;;
15848;SDS011;8024;48.708;9.394;2023-06-24T12:17:51;2.38;;;1.90;;
15848;SDS011;8024;48.708;9.394;2023-06-24T12:20:20;1.58;;;1.48;;
15848;SDS011;8024;48.708;9.394;2023-06-24T12:22:48;1.52;;;1.38;;
15848;SDS011;8024;48.708;9.394;2023-06-24T12:25:15;2.53;;;1.85;;
15848;SDS011;8024;48.708;9.394;2023-06-24T12:27:43;1.83;;;1.73;;
15848;SDS011;8024;48.708;9.394;2023-06-24T12:30:12;1.80;;;1.70;;
15848;SDS011;8024;48.708;9.394;2023-06-24T12:32:41;1.50;;;1.40;;
15848;SDS011;8024;48.708;9.394;2023-06-24T12:35:08;1.80;;;1.70;;
15848;SDS011;8024;48.708;9.394;2023-06-24T12:37:37;1.85;;;1.58;;
15848;SDS011;8024;48.708;9.394;2023-06-24T12:40:06;1.63;;;1.52;;
15848;SDS011;8024;48.708;9.394;2023-06-24T12:42:34;1.60;;;1.50;;
15848;SDS011;8024;48.708;9.394;2023-06-24T12:45:01;1.75;;;1.65;;
15848;SDS011;8024;48.708;9.394;2023-06-24T12:47:28;1.92;;;1.75;;
15848;SDS011;8024;48.708;9.394;2023-06-24T12:49:56;1.35;;;1.25;;
15848;SDS011;8024;48.708;9.394;2023-06-24T12:52:23;2.45;;;1.90;;
15848;SDS011;8024;48.708;9.394;2023-06-24T12:54:54;2.38;;;2.17;;
15848;SDS011;8024;48.708;9.394;2023-06-24T12:57:21;2.33;;;2.13;;
15848;SDS011;8024;48.708;9.394;2023-06-24T12:59:48;2.00;;;1.90;;
15848;SDS011;8024;48.708;9.394;2023-06-24T13:02:15;1.88;;;1.50;;
15848;SDS011;8024;48.708;9.394;2023-06-24T13:04:42;2.05;;;1.70;;
15848;SDS011;8024;48.708;9.394;2023-06-24T13:07:10;2.20;;;2.10;;
15848;SDS011;8024;48.708;9.394;2023-06-24T13:09:37;2.58;;;1.80;;
15848;SDS011;8024;48.708;9.394;2023-06-24T13:12:06;1.70;;;1.60;;
15848;SDS011;8024;48.708;9.394;2023-06-24T13:14:34;1.65;;;1.55;;
15848;SDS011;8024;48.708;9.394;2023-06-24T13:17:01;1.65;;;1.55;;
15848;SDS011;8024;48.708;9.394;2023-06-24T13:19:29;1.77;;;1.67;;
15848;SDS011;8024;48.708;9.394;2023-06-24T13:21:57;2.60;;;2.20;;
15848;SDS011;8024;48.708;9.394;2023-06-24T13:24:24;1.70;;;1.60;;
15848;SDS011;8024;48.708;9.394;2023-06-24T13:26:51;2.10;;;2.00;;
15848;SDS011;8024;48.708;9.394;2023-06-24T13:29:20;2.35;;;2.15;;
15848;SDS011;8024;48.708;9.394;2023-06-24T13:31:47;1.95;;;1.83;;
15848;SDS011;8024;48.708;9.394;2023-06-24T13:34:14;2.60;;;2.10;;
15848;SDS011;8024;48.708;9.394;2023-06-24T13:36:41;2.33;;;2.13;;
15848;SDS011;8024;48.708;9.394;2023-06-24T13:39:09;1.70;;;1.60;;
15848;SDS011;8024;48.708;9.394;2023-06-24T13:41:37;1.63;;;1.50;;
15848;SDS011;8024;48.708;9.394;2023-06-24T13:44:05;1.63;;;1.52;;
15848;SDS011;8024;48.708;9.394;2023-06-24T13:46:33;1.85;;;1.75;;
15848;SDS011;8024;48.708;9.394;2023-06-24T13:49:01;1.63;;;1.52;;
15848;SDS011;8024;48.708;9.394;2023-06-24T13:51:28;1.70;;;1.60;;
15848;SDS011;8024;48.708;9.394;2023-06-24T13:53:55;2.72;;;1.80;;
15848;SDS011;8024;48.708;9.394;2023-06-24T13:56:23;1.65;;;1.55;;
15848;SDS011;8024;48.708;9.394;2023-06-24T13:58:51;2.47;;;2.28;;
15848;SDS011;8024;48.708;9.394;2023-06-24T14:01:19;1.80;;;1.70;;
15848;SDS011;8024;48.708;9.394;2023-06-24T14:03:48;2.22;;;2.03;;
15848;SDS011;8024;48.708;9.394;2023-06-24T14:06:17;2.00;;;1.90;;
15848;SDS011;8024;48.708;9.394;2023-06-24T14:08:45;3.33;;;1.60;;
15848;SDS011;8024;48.708;9.394;2023-06-24T14:11:13;1.67;;;1.58;;
15848;SDS011;8024;48.708;9.394;2023-06-24T14:13:40;1.55;;;1.45;;
15848;SDS011;8024;48.708;9.394;2023-06-24T14:16:08;2.08;;;1.88;;
15848;SDS011;8024;48.708;9.394;2023-06-24T14:18:36;2.22;;;1.65;;
15848;SDS011;8024;48.708;9.394;2023-06-24T14:21:05;1.67;;;1.58;;
15848;SDS011;8024;48.708;9.394;2023-06-24T14:23:33;2.25;;;2.05;;
15848;SDS011;8024;48.708;9.394;2023-06-24T14:26:00;2.80;;;2.47;;
15848;SDS011;8024;48.708;9.394;2023-06-24T14:28:28;1.75;;;1.65;;
15848;SDS011;8024;48.708;9.394;2023-06-24T14:30:55;1.80;;;1.70;;
15848;SDS011;8024;48.708;9.394;2023-06-24T14:33:23;1.83;;;1.73;;
15848;SDS011;8024;48.708;9.394;2023-06-24T14:35:50;1.75;;;1.65;;
15848;SDS011;8024;48.708;9.394;2023-06-24T14:38:18;2.42;;;2.22;;
15848;SDS011;8024;48.708;9.394;2023-06-24T14:40:46;1.80;;;1.70;;
15848;SDS011;8024;48.708;9.394;2023-06-24T14:43:13;2.80;;;2.30;;
15848;SDS011;8024;48.708;9.394;2023-06-24T14:45:40;3.38;;;2.08;;
15848;SDS011;8024;48.708;9.394;2023-06-24T14:48:07;2.40;;;1.95;;
15848;SDS011;8024;48.708;9.394;2023-06-24T14:50:34;1.90;;;1.42;;
15848;SDS011;8024;48.708;9.394;2023-06-24T14:53:02;1.60;;;1.50;;
15848;SDS011;8024;48.708;9.394;2023-06-24T14:55:30;3.33;;;2.63;;
15848;SDS011;8024;48.708;9.394;2023-06-24T14:57:57;2.00;;;1.90;;
15848;SDS011;8024;48.708;9.394;2023-06-24T15:00:25;1.98;;;1.70;;
15848;SDS011;8024;48.708;9.394;2023-06-24T15:02:52;1.63;;;1.48;;
15848;SDS011;8024;48.708;9.394;2023-06-24T15:05:19;1.77;;;1.67;;
15848;SDS011;8024;48.708;9.394;2023-06-24T15:07:46;2.10;;;1.60;;
15848;SDS011;8024;48.708;9.394;2023-06-24T15:10:13;1.90;;;1.80;;
15848;SDS011;8024;48.708;9.394;2023-06-24T15:12:43;1.77;;;1.60;;
15848;SDS011;8024;48.708;9.394;2023-06-24T15:15:10;1.73;;;1.58;;